Time;durP1;ratioP1;P1;durP2;ratioP2;P2;SDS_P1;SDS_P2;PMS_P1;PMS_P2;Temp;Humidity;BMP_temperature;BMP_pressure;BME280_temperature;BME280_humidity;BME280_pressure;Samples;Min_cycle;Max_cycle;Signal;HPM_P1;HPM_P2
2022/09/23 00:01:00;;;;;;;10.85;3.90;;;;;;;12.28;65.98;101406.22;5089663;28;20494;-55
2022/09/23 00:03:29;;;;;;;12.43;3.83;;;;;;;12.27;65.94;101400.06;5100958;28;20553;-55
2022/09/23 00:05:58;;;;;;;20.52;5.00;;;;;;;12.26;66.21;101409.03;5107272;28;20493;-56
2022/09/23 00:08:25;;;;;;;8.95;3.72;;;;;;;12.17;66.53;101409.06;5090708;28;20101;-55
2022/09/23 00:10:52;;;;;;;12.48;4.20;;;;;;;12.18;66.34;101405.44;5089134;28;20044;-55
2022/09/23 00:13:19;;;;;;;11.45;4.40;;;;;;;12.18;66.24;101408.09;5087396;28;20511;-56
2022/09/23 00:15:45;;;;;;;13.63;4.50;;;;;;;11.96;66.78;101402.19;5075548;28;20040;-55
2022/09/23 00:18:12;;;;;;;11.48;4.07;;;;;;;11.99;67.22;101403.69;5075539;28;20036;-56
2022/09/23 00:20:39;;;;;;;11.20;3.92;;;;;;;12.04;67.03;101401.44;5074887;28;20032;-55
2022/09/23 00:23:06;;;;;;;10.40;4.25;;;;;;;12.01;67.18;101399.91;5074435;28;20067;-55
2022/09/23 00:25:32;;;;;;;13.10;4.05;;;;;;;11.97;66.94;101401.22;5083385;28;20052;-55
2022/09/23 00:27:59;;;;;;;10.60;4.20;;;;;;;12.06;66.97;101400.31;5095856;28;20091;-56
2022/09/23 00:30:26;;;;;;;10.18;4.47;;;;;;;12.07;66.42;101390.50;5095900;28;20089;-56
2022/09/23 00:32:52;;;;;;;12.75;4.28;;;;;;;12.01;66.57;101391.94;5079619;28;20049;-56
2022/09/23 00:35:19;;;;;;;12.00;4.47;;;;;;;11.97;66.84;101384.41;5083085;28;20046;-55
2022/09/23 00:37:46;;;;;;;12.43;4.32;;;;;;;11.88;67.10;101391.44;5080530;28;20079;-55
2022/09/23 00:40:13;;;;;;;13.38;4.38;;;;;;;11.81;67.47;101385.84;5075928;28;20041;-55
2022/09/23 00:42:50;;;;;;;11.38;4.57;;;;;;;11.86;67.12;101391.56;5075590;28;20062;-55
2022/09/23 00:45:18;;;;;;;13.85;4.70;;;;;;;11.81;67.31;101390.34;5075029;28;20045;-55
2022/09/23 00:47:52;;;;;;;11.55;4.78;;;;;;;11.74;67.43;101390.06;5075563;28;20045;-55
2022/09/23 00:50:38;;;;;;;10.52;4.20;;;;;;;11.76;67.63;101396.06;5090265;28;20044;-55
2022/09/23 00:53:08;;;;;;;12.25;4.40;;;;;;;11.73;68.03;101385.72;5048078;28;20062;-56
2022/09/23 00:55:44;;;;;;;13.07;4.32;;;;;;;11.69;67.97;101379.88;5076588;28;20044;-55
2022/09/23 00:58:16;;;;;;;13.65;4.20;;;;;;;11.71;68.17;101390.34;5075120;28;20116;-56
2022/09/23 01:00:45;;;;;;;17.42;4.57;;;;;;;11.64;67.89;101378.63;5074965;28;20106;-55
2022/09/23 01:03:13;;;;;;;12.82;4.30;;;;;;;11.75;67.96;101374.94;5084486;28;20048;-55
2022/09/23 01:05:41;;;;;;;13.18;4.45;;;;;;;11.67;67.86;101375.69;5093478;28;20409;-55
2022/09/23 01:08:10;;;;;;;12.63;4.35;;;;;;;11.64;68.08;101379.50;5078456;28;20486;-55
2022/09/23 01:11:05;;;;;;;12.23;4.28;;;;;;;11.66;68.17;101381.97;5074233;28;20440;-55
2022/09/23 01:14:01;;;;;;;11.60;4.15;;;;;;;11.48;68.04;101369.47;5073664;28;20048;-55
2022/09/23 01:17:07;;;;;;;16.88;5.15;;;;;;;11.55;68.28;101372.38;5074350;28;20045;-55
2022/09/23 01:20:02;;;;;;;14.48;4.60;;;;;;;11.55;68.52;101368.88;5073638;28;20055;-55
2022/09/23 01:23:09;;;;;;;13.88;4.85;;;;;;;11.58;68.08;101372.06;5075217;28;20044;-56
2022/09/23 01:26:16;;;;;;;17.60;4.88;;;;;;;11.50;68.34;101366.66;5081084;28;20082;-55
2022/09/23 01:29:09;;;;;;;15.18;4.78;;;;;;;11.48;68.09;101360.66;5073886;28;20040;-55
2022/09/23 01:32:01;;;;;;;13.27;4.45;;;;;;;11.43;68.35;101363.75;5074603;28;20510;-55
2022/09/23 01:34:41;;;;;;;15.35;5.03;;;;;;;11.50;68.74;101362.19;5073828;28;20371;-55
2022/09/23 01:37:12;;;;;;;17.45;5.07;;;;;;;11.47;68.79;101356.31;5074119;28;20033;-55
2022/09/23 01:39:43;;;;;;;;;;;;;;;11.43;68.59;101354.94;5078181;28;20041;-55
2022/09/23 01:42:28;;;;;;;16.00;4.82;;;;;;;11.43;68.84;101353.13;5074030;28;19930;-56
2022/09/23 01:45:04;;;;;;;12.43;4.40;;;;;;;11.49;68.90;101349.03;5074255;28;20397;-55
2022/09/23 01:47:40;;;;;;;15.20;5.50;;;;;;;11.41;68.53;101354.25;5073666;28;20394;-55
2022/09/23 01:53:09;;;;;;;13.52;4.97;;;;;;;11.48;68.60;101344.72;5008140;28;20045;-55
2022/09/23 01:55:41;;;;;;;14.57;4.53;;;;;;;11.43;68.30;101345.16;5081928;28;20052;-55
2022/09/23 01:58:17;;;;;;;15.43;4.82;;;;;;;11.38;68.74;101349.22;5073545;28;20047;-56
2022/09/23 02:00:59;;;;;;;12.07;4.20;;;;;;;11.42;68.58;101350.59;5073667;28;20045;-56
2022/09/23 02:03:32;;;;;;;13.70;4.57;;;;;;;11.34;68.74;101348.66;5084909;28;20508;-55
2022/09/23 02:06:05;;;;;;;9.95;4.20;;;;;;;11.32;69.15;101348.81;5091997;28;20046;-55
2022/09/23 02:08:38;;;;;;;13.02;4.28;;;;;;;11.27;69.58;101345.75;5073404;28;20123;-55
2022/09/23 02:11:10;;;;;;;10.68;3.88;;;;;;;11.21;69.26;101337.53;5073663;28;20139;-55
2022/09/23 02:13:51;;;;;;;13.20;4.38;;;;;;;11.30;69.40;101341.97;5077214;28;20036;-55
2022/09/23 02:16:27;;;;;;;10.63;4.50;;;;;;;11.19;69.66;101331.50;5073233;28;20524;-55
2022/09/23 02:19:00;;;;;;;11.85;4.28;;;;;;;11.20;69.61;101341.16;5073588;28;20057;-55
2022/09/23 02:21:33;;;;;;;12.38;4.38;;;;;;;11.15;69.83;101330.94;5073950;28;20433;-55
2022/09/23 02:24:07;;;;;;;11.75;4.40;;;;;;;11.12;70.64;101332.09;5073014;28;20078;-55
2022/09/23 02:26:44;;;;;;;11.98;4.68;;;;;;;11.11;70.41;101333.09;5084364;28;20135;-55
2022/09/23 02:29:28;;;;;;;10.60;4.40;;;;;;;11.10;70.43;101328.75;5073708;28;20115;-55
2022/09/23 02:32:07;;;;;;;11.20;4.38;;;;;;;11.18;70.63;101321.88;5073419;28;20052;-55
2022/09/23 02:34:44;;;;;;;11.57;4.30;;;;;;;11.14;70.75;101330.13;5072664;28;20033;-55
2022/09/23 02:37:38;;;;;;;13.25;4.65;;;;;;;11.16;70.88;101327.31;5089466;28;20043;-55
2022/09/23 02:40:38;;;;;;;14.10;4.82;;;;;;;11.10;70.89;101327.91;5092685;28;20040;-55
2022/09/23 02:43:13;;;;;;;10.55;4.53;;;;;;;10.95;70.76;101322.19;5072784;28;20124;-55
2022/09/23 02:45:40;;;;;;;21.33;4.85;;;;;;;11.01;70.76;101318.97;5076436;28;20068;-56
2022/09/23 02:48:13;;;;;;;10.95;4.50;;;;;;;11.07;70.79;101309.59;5073097;28;20045;-56
2022/09/23 02:50:40;;;;;;;14.40;4.70;;;;;;;11.09;70.55;101310.28;5067488;28;20036;-55
2022/09/23 02:53:07;;;;;;;15.57;4.53;;;;;;;11.12;70.22;101310.84;5008720;28;20044;-55
2022/09/23 02:55:34;;;;;;;14.27;4.40;;;;;;;11.11;69.59;101316.28;5080046;28;20078;-57
2022/09/23 02:58:04;;;;;;;11.52;4.57;;;;;;;10.97;70.28;101314.09;5074652;28;20048;-55
2022/09/23 03:03:29;;;;;;;16.33;4.43;;;;;;;11.05;69.71;101304.44;5131161;27;20541;-55
2022/09/23 03:06:03;;;;;;;15.40;5.15;;;;;;;11.18;69.33;101300.63;5101014;28;20036;-55
2022/09/23 03:08:47;;;;;;;13.07;4.88;;;;;;;11.01;70.15;101305.69;5090133;28;20094;-54
2022/09/23 03:11:15;;;;;;;14.55;4.95;;;;;;;11.00;70.06;101304.00;5089877;28;20083;-54
2022/09/23 03:14:03;;;;;;;15.35;4.90;;;;;;;10.86;70.11;101297.34;5090248;28;20486;-54
2022/09/23 03:16:41;;;;;;;15.25;4.82;;;;;;;10.90;69.98;101296.09;5090406;28;20041;-54
2022/09/23 03:19:40;;;;;;;11.23;4.53;;;;;;;10.84;70.62;101296.66;5090139;28;20475;-55
2022/09/23 03:22:17;;;;;;;16.73;5.38;;;;;;;10.80;71.02;101300.56;5090168;28;20094;-54
2022/09/23 03:24:47;;;;;;;13.25;5.20;;;;;;;10.73;71.62;101294.13;5090750;28;20048;-55
2022/09/23 03:27:21;;;;;;;20.08;5.25;;;;;;;10.74;71.77;101285.22;5110451;28;20068;-55
2022/09/23 03:29:50;;;;;;;14.18;4.80;;;;;;;10.76;71.64;101284.09;5110511;28;20423;-55
2022/09/23 03:32:21;;;;;;;15.02;4.93;;;;;;;10.76;71.27;101280.59;5110865;28;20040;-55
2022/09/23 03:34:52;;;;;;;12.02;4.40;;;;;;;10.67;71.35;101292.91;5092051;28;20086;-55
2022/09/23 03:37:46;;;;;;;13.40;4.93;;;;;;;10.68;71.65;101296.41;5092028;28;20046;-54
2022/09/23 03:40:22;;;;;;;14.05;4.65;;;;;;;10.75;71.35;101287.72;5110034;28;20036;-54
2022/09/23 03:42:50;;;;;;;12.30;4.40;;;;;;;10.75;71.31;101292.19;5109964;28;20063;-54
2022/09/23 03:45:21;;;;;;;17.38;4.47;;;;;;;10.72;71.04;101293.31;5110402;28;20096;-54
2022/09/23 03:47:47;;;;;;;15.07;4.70;;;;;;;10.72;71.33;101288.00;5110209;28;20421;-54
2022/09/23 03:50:16;;;;;;;16.23;5.07;;;;;;;10.72;71.07;101289.84;5110089;28;20097;-56
2022/09/23 03:52:43;;;;;;;14.73;4.60;;;;;;;10.75;72.19;101286.88;4980337;28;20507;-55
2022/09/23 03:55:10;;;;;;;14.55;4.65;;;;;;;10.77;71.71;101284.94;5110318;28;20043;-55
2022/09/23 03:57:37;;;;;;;14.20;5.00;;;;;;;10.76;71.30;101285.91;5109726;28;20074;-55
2022/09/23 04:00:06;;;;;;;16.65;4.70;;;;;;;10.78;71.50;101289.25;5110016;28;20052;-55
2022/09/23 04:02:40;;;;;;;13.00;5.13;;;;;;;10.71;72.07;101283.69;5093462;28;20051;-55
2022/09/23 04:05:09;;;;;;;12.38;4.68;;;;;;;10.62;72.21;101281.88;5088480;28;20563;-55
2022/09/23 04:07:36;;;;;;;13.30;5.07;;;;;;;10.62;72.36;101273.91;5089514;28;20083;-55
2022/09/23 04:10:04;;;;;;;13.98;5.18;;;;;;;10.67;71.88;101270.84;5071229;28;20055;-56
2022/09/23 04:12:31;;;;;;;12.82;5.30;;;;;;;10.70;72.32;101263.44;5087976;28;20098;-55
2022/09/23 04:14:58;;;;;;;16.77;4.80;;;;;;;10.64;71.65;101256.06;5057371;28;20383;-55
2022/09/23 04:17:24;;;;;;;13.80;4.80;;;;;;;10.55;72.21;101260.38;5075863;28;20505;-55
2022/09/23 04:19:51;;;;;;;17.13;4.93;;;;;;;10.67;71.74;101258.41;5075299;28;20052;-55
2022/09/23 04:22:18;;;;;;;13.38;5.15;;;;;;;10.60;71.95;101253.81;5075867;28;20094;-55
2022/09/23 04:24:44;;;;;;;14.75;5.70;;;;;;;10.46;72.30;101261.22;5075108;28;20416;-54
2022/09/23 04:27:11;;;;;;;14.60;5.65;;;;;;;10.52;72.72;101259.81;5055459;28;20071;-55
2022/09/23 04:29:37;;;;;;;13.70;5.10;;;;;;;10.58;71.89;101248.63;5037579;28;20049;-55
2022/09/23 04:32:04;;;;;;;19.48;7.00;;;;;;;10.60;72.02;101249.34;5055518;28;20040;-55
2022/09/23 04:34:48;;;;;;;15.25;5.47;;;;;;;10.53;71.80;101245.56;5055412;28;20041;-54
2022/09/23 04:37:16;;;;;;;14.38;5.45;;;;;;;10.60;71.76;101246.69;5065507;28;20123;-55
2022/09/23 04:39:42;;;;;;;18.75;5.72;;;;;;;10.53;71.93;101243.78;5057742;28;20102;-55
2022/09/23 04:42:09;;;;;;;19.00;5.68;;;;;;;10.51;72.31;101239.56;5075330;28;20080;-55
2022/09/23 04:44:37;;;;;;;13.38;5.25;;;;;;;10.51;72.66;101239.56;5075130;28;20052;-55
2022/09/23 04:47:05;;;;;;;18.38;6.22;;;;;;;10.48;72.67;101240.69;5057921;28;20072;-55
2022/09/23 04:49:32;;;;;;;13.35;5.50;;;;;;;10.54;72.54;101234.00;5057082;28;20444;-55
2022/09/23 04:51:58;;;;;;;15.32;6.00;;;;;;;10.43;73.05;101232.31;5037386;28;20045;-55
2022/09/23 04:54:26;;;;;;;14.70;6.20;;;;;;;10.49;72.76;101236.22;5057391;28;20456;-55
2022/09/23 04:56:52;;;;;;;18.45;5.90;;;;;;;10.49;73.04;101230.91;5074823;28;20040;-56
2022/09/23 04:59:19;;;;;;;19.58;6.43;;;;;;;10.46;72.42;101228.53;5075118;28;20097;-55
2022/09/23 05:01:46;;;;;;;19.48;6.70;;;;;;;10.38;72.53;101224.78;5069408;28;20072;-55
2022/09/23 05:04:13;;;;;;;14.25;6.28;;;;;;;10.49;72.86;101231.75;5094300;28;20097;-55
2022/09/23 05:06:42;;;;;;;16.05;6.22;;;;;;;10.41;72.74;101230.81;5094560;28;20051;-55
2022/09/23 05:09:14;;;;;;;17.83;6.22;;;;;;;10.45;72.65;101232.19;5093768;28;20044;-56
2022/09/23 05:11:42;;;;;;;17.88;6.47;;;;;;;10.49;72.26;101241.53;5093720;28;20507;-54
2022/09/23 05:14:08;;;;;;;17.50;6.25;;;;;;;10.38;72.33;101238.03;5095262;28;20066;-55
2022/09/23 05:16:35;;;;;;;16.92;6.00;;;;;;;10.33;72.23;101228.84;5094454;28;20386;-54
2022/09/23 05:19:02;;;;;;;17.17;6.03;;;;;;;10.34;72.20;101236.66;5094843;28;20054;-55
2022/09/23 05:21:30;;;;;;;17.55;5.65;;;;;;;10.28;72.12;101239.84;5094745;28;20123;-55
2022/09/23 05:23:59;;;;;;;13.38;5.80;;;;;;;10.31;72.04;101236.94;5093435;28;20154;-55
2022/09/23 05:26:29;;;;;;;12.95;5.65;;;;;;;10.34;71.77;101241.13;5079379;28;20536;-55
2022/09/23 05:28:57;;;;;;;16.25;5.50;;;;;;;10.31;72.02;101242.22;5074200;28;20075;-54
2022/09/23 05:31:26;;;;;;;18.13;5.82;;;;;;;10.33;71.83;101245.59;5074718;28;20056;-55
2022/09/23 05:33:59;;;;;;;16.98;5.28;;;;;;;10.40;72.26;101245.03;5074157;28;20049;-55
2022/09/23 05:36:27;;;;;;;16.48;5.63;;;;;;;10.40;71.96;101247.69;5073294;28;20143;-55
2022/09/23 05:38:56;;;;;;;14.75;5.45;;;;;;;10.40;71.96;101248.50;5087200;28;20037;-55
2022/09/23 05:41:24;;;;;;;16.65;5.68;;;;;;;10.37;71.30;101244.34;5090634;28;20498;-55
2022/09/23 05:43:51;;;;;;;16.23;5.90;;;;;;;10.30;71.75;101242.38;5093746;28;20366;-55
2022/09/23 05:46:22;;;;;;;16.58;5.63;;;;;;;10.33;71.61;101242.94;5093707;28;20404;-55
2022/09/23 05:48:49;;;;;;;15.98;5.65;;;;;;;10.25;71.75;101242.78;5094094;28;20071;-54
2022/09/23 05:51:19;;;;;;;17.65;6.97;;;;;;;10.29;72.63;101244.16;5055064;28;20040;-54
2022/09/23 05:53:47;;;;;;;16.13;5.85;;;;;;;10.31;72.53;101246.69;5087460;28;20040;-55
2022/09/23 05:56:16;;;;;;;15.40;5.45;;;;;;;10.28;72.46;101249.63;5081145;28;20397;-55
2022/09/23 05:58:43;;;;;;;13.63;5.50;;;;;;;10.41;72.15;101252.84;5083444;28;20041;-55
2022/09/23 06:01:12;;;;;;;15.75;5.85;;;;;;;10.43;71.98;101245.59;5076201;28;20045;-55
2022/09/23 06:03:39;;;;;;;14.30;5.93;;;;;;;10.39;72.36;101254.81;5054116;28;20049;-55
2022/09/23 06:06:06;;;;;;;15.23;6.03;;;;;;;10.43;71.98;101265.97;5054556;28;20037;-55
2022/09/23 06:08:33;;;;;;;15.35;5.70;;;;;;;10.53;72.25;101258.84;5066279;28;20044;-55
2022/09/23 06:11:07;;;;;;;13.68;6.15;;;;;;;10.50;72.61;101251.19;5072587;28;20044;-55
2022/09/23 06:13:36;;;;;;;22.83;6.32;;;;;;;10.51;72.88;101251.03;5071853;28;20032;-53
2022/09/23 06:16:07;;;;;;;16.30;5.80;;;;;;;10.53;73.54;101245.56;5049355;28;20041;-54
2022/09/23 06:18:35;;;;;;;16.85;5.95;;;;;;;10.49;73.42;101249.50;5052649;28;20095;-55
2022/09/23 06:21:03;;;;;;;16.33;6.40;;;;;;;10.59;72.95;101245.03;5039455;28;20383;-53
2022/09/23 06:23:30;;;;;;;20.40;6.35;;;;;;;10.64;73.03;101252.53;5054207;28;20055;-54
2022/09/23 06:26:01;;;;;;;17.83;6.05;;;;;;;10.72;72.15;101242.91;5062174;28;20048;-54
2022/09/23 06:28:31;;;;;;;14.32;6.60;;;;;;;10.69;72.91;101243.16;5055804;28;20077;-54
2022/09/23 06:30:59;;;;;;;14.23;6.03;;;;;;;10.82;72.21;101245.50;5066314;28;20049;-54
2022/09/23 06:33:26;;;;;;;16.77;6.10;;;;;;;10.85;72.15;101247.06;5072219;28;20102;-53
2022/09/23 06:36:02;;;;;;;13.98;6.20;;;;;;;10.87;71.95;101242.44;5052564;28;20045;-53
2022/09/23 06:38:29;;;;;;;16.17;6.63;;;;;;;11.05;71.55;101246.03;5061132;28;20052;-54
2022/09/23 06:40:57;;;;;;;17.15;6.50;;;;;;;10.98;71.97;101258.19;5053267;28;20049;-54
2022/09/23 06:43:25;;;;;;;15.30;6.72;;;;;;;11.14;71.37;101254.94;5062432;28;20033;-55
2022/09/23 06:45:56;;;;;;;14.85;7.10;;;;;;;11.13;70.69;101258.56;5054952;28;20468;-52
2022/09/23 06:48:25;;;;;;;16.33;6.53;;;;;;;11.33;70.65;101254.00;5053096;28;20056;-55
2022/09/23 06:50:52;;;;;;;25.63;7.28;;;;;;;11.27;70.65;101249.31;5051610;28;20045;-54
2022/09/23 06:53:22;;;;;;;18.33;6.85;;;;;;;11.31;69.21;101248.00;5023306;28;20036;-53
2022/09/23 06:56:06;;;;;;;18.30;7.20;;;;;;;11.48;69.06;101249.09;5070332;28;20045;-53
2022/09/23 06:58:34;;;;;;;18.48;6.72;;;;;;;11.56;68.82;101256.31;5064240;28;20135;-59
2022/09/23 07:01:05;;;;;;;21.80;7.50;;;;;;;11.65;69.42;101258.06;5052592;28;20131;-57
2022/09/23 07:03:33;;;;;;;22.52;7.47;;;;;;;11.76;68.12;101260.53;5071053;28;20082;-57
2022/09/23 07:06:00;;;;;;;14.75;6.80;;;;;;;11.71;68.08;101253.00;5065420;28;20040;-57
2022/09/23 07:08:29;;;;;;;18.60;6.63;;;;;;;11.86;67.69;101253.34;5065050;28;20098;-58
2022/09/23 07:10:58;;;;;;;16.27;6.63;;;;;;;11.92;67.28;101254.59;5042687;28;20048;-57
2022/09/23 07:13:26;;;;;;;14.02;6.07;;;;;;;11.89;66.63;101260.97;5067247;28;20048;-57
2022/09/23 07:15:57;;;;;;;17.33;6.18;;;;;;;11.85;66.17;101254.31;5072671;28;20052;-55
2022/09/23 07:18:25;;;;;;;19.05;6.65;;;;;;;11.90;67.02;101261.88;5070871;28;20075;-56
2022/09/23 07:20:53;;;;;;;15.55;6.30;;;;;;;11.85;66.75;101259.63;5065884;28;20037;-56
2022/09/23 07:23:20;;;;;;;21.65;6.60;;;;;;;12.09;66.62;101255.56;5071989;28;20043;-57
2022/09/23 07:25:48;;;;;;;16.33;6.32;;;;;;;12.14;66.40;101260.44;5072175;28;20094;-57
2022/09/23 07:28:15;;;;;;;18.35;6.43;;;;;;;12.19;66.79;101253.69;5072094;28;20040;-54
2022/09/23 07:30:43;;;;;;;16.10;6.65;;;;;;;12.24;65.64;101256.72;5071596;28;20048;-54
2022/09/23 07:33:17;;;;;;;15.18;6.45;;;;;;;12.27;65.75;101256.41;5072092;28;20048;-54
2022/09/23 07:35:53;;;;;;;16.33;6.25;;;;;;;12.32;64.98;101258.63;5071576;28;20036;-54
2022/09/23 07:38:21;;;;;;;12.85;6.38;;;;;;;12.25;66.67;101268.19;5055721;28;20052;-54
2022/09/23 07:40:47;;;;;;;16.42;6.72;;;;;;;12.35;65.57;101262.78;5072149;28;20071;-53
2022/09/23 07:43:14;;;;;;;17.95;6.38;;;;;;;12.46;66.40;101265.19;5053806;28;20044;-53
2022/09/23 07:45:42;;;;;;;17.13;6.25;;;;;;;12.44;65.84;101265.38;5054394;28;20055;-53
2022/09/23 07:48:09;;;;;;;13.00;6.20;;;;;;;12.55;65.58;101266.13;5072860;28;20118;-54
2022/09/23 07:50:38;;;;;;;19.02;6.75;;;;;;;12.73;65.65;101252.78;5064507;28;20045;-54
2022/09/23 07:53:06;;;;;;;12.95;6.00;;;;;;;12.65;66.27;101253.56;5007379;28;20127;-54
2022/09/23 07:55:33;;;;;;;11.20;5.90;;;;;;;12.73;65.02;101256.25;5058535;28;20060;-44
2022/09/23 07:58:00;;;;;;;14.70;6.43;;;;;;;12.77;65.61;101262.97;5067892;28;20048;-40
2022/09/23 08:00:27;;;;;;;14.38;5.95;;;;;;;12.82;65.53;101260.69;5063971;28;20055;-40
2022/09/23 08:02:53;;;;;;;14.68;5.90;;;;;;;12.83;66.03;101261.50;5072305;28;20041;-40
2022/09/23 08:05:21;;;;;;;12.30;6.03;;;;;;;12.83;65.38;101264.19;5073051;28;20472;-54
2022/09/23 08:07:48;;;;;;;16.25;6.47;;;;;;;12.95;64.67;101254.94;5066886;28;20044;-53
2022/09/23 08:10:17;;;;;;;15.93;5.55;;;;;;;13.13;63.95;101254.03;5062472;28;20525;-53
2022/09/23 08:12:45;;;;;;;15.55;5.95;;;;;;;13.13;64.99;101251.38;5061013;28;20037;-54
2022/09/23 08:15:12;;;;;;;14.20;5.90;;;;;;;13.20;64.05;101261.22;5065255;28;20106;-54
2022/09/23 08:17:39;;;;;;;14.13;5.88;;;;;;;13.23;64.46;101260.91;5065011;28;20044;-53
2022/09/23 08:20:06;;;;;;;13.90;5.97;;;;;;;13.40;63.99;101256.50;5044507;28;20049;-54
2022/09/23 08:22:32;;;;;;;17.67;5.90;;;;;;;13.56;64.37;101265.59;5071305;28;20041;-54
2022/09/23 08:24:59;;;;;;;13.15;6.10;;;;;;;13.78;62.71;101261.50;5041245;28;20453;-54
2022/09/23 08:27:28;;;;;;;13.45;5.80;;;;;;;13.82;62.84;101254.84;5072196;28;20086;-53
2022/09/23 08:29:54;;;;;;;20.58;5.80;;;;;;;13.97;61.15;101249.69;5042424;28;20041;-54
2022/09/23 08:32:21;;;;;;;15.32;6.10;;;;;;;14.14;62.18;101253.25;5059478;28;20048;-54
2022/09/23 08:34:48;;;;;;;15.13;5.93;;;;;;;14.20;62.47;101250.72;5055722;28;20052;-54
2022/09/23 08:37:14;;;;;;;14.68;5.72;;;;;;;14.16;60.33;101256.56;5063904;28;20037;-55
2022/09/23 08:39:41;;;;;;;13.38;5.80;;;;;;;14.29;60.32;101256.09;5064653;28;20048;-55
2022/09/23 08:42:17;;;;;;;14.05;5.80;;;;;;;14.35;59.25;101242.06;5072449;28;20547;-54
2022/09/23 08:44:48;;;;;;;15.27;5.65;;;;;;;14.10;60.00;101239.41;5065768;28;20044;-55
2022/09/23 08:47:38;;;;;;;12.38;5.57;;;;;;;14.40;61.07;101243.22;5064931;28;20047;-55
2022/09/23 08:50:12;;;;;;;13.68;6.43;;;;;;;14.21;61.34;101252.41;5061534;28;20041;-55
2022/09/23 08:53:03;;;;;;;15.95;6.57;;;;;;;14.08;59.48;101253.88;4956811;28;20347;-55
2022/09/23 08:55:38;;;;;;;18.02;6.82;;;;;;;14.25;59.73;101254.75;5071605;28;20090;-56
2022/09/23 08:58:36;;;;;;;12.80;6.05;;;;;;;14.16;59.66;101249.41;5067626;28;20044;-55
2022/09/23 09:01:23;;;;;;;12.85;6.53;;;;;;;14.16;59.93;101246.72;5064400;28;20090;-55
2022/09/23 09:03:55;;;;;;;20.77;7.38;;;;;;;14.10;60.16;101247.41;5069760;28;20048;-56
2022/09/23 09:06:47;;;;;;;14.98;6.80;;;;;;;14.31;61.67;101249.56;5060227;28;20136;-56
2022/09/23 09:09:25;;;;;;;14.25;6.55;;;;;;;14.51;61.07;101244.72;5063370;28;20048;-56
2022/09/23 09:12:02;;;;;;;17.88;6.97;;;;;;;14.45;59.92;101247.25;5058567;28;20495;-56
2022/09/23 09:14:54;;;;;;;21.85;7.20;;;;;;;14.76;59.92;101242.06;5069179;28;20056;-56
2022/09/23 09:17:37;;;;;;;17.17;6.82;;;;;;;15.23;59.51;101248.50;5073607;28;20128;-56
2022/09/23 09:20:22;;;;;;;16.13;6.68;;;;;;;15.53;56.83;101253.03;5059667;28;20056;-56
2022/09/23 09:22:56;;;;;;;15.65;6.70;;;;;;;15.88;56.37;101247.34;5062538;28;20071;-56
2022/09/23 09:28:15;;;;;;;17.73;6.82;;;;;;;16.67;52.73;101245.25;5102406;27;20405;-54
2022/09/23 09:30:43;;;;;;;13.82;6.35;;;;;;;16.91;53.73;101239.84;5102054;28;20454;-55
2022/09/23 09:33:14;;;;;;;;;;;;;;;16.88;52.86;101241.03;5100081;28;20043;-54
2022/09/23 09:36:12;;;;;;;16.23;7.10;;;;;;;16.76;52.51;101231.78;5095113;28;19928;-54
2022/09/23 09:38:39;;;;;;;20.23;6.50;;;;;;;17.38;51.57;101231.44;5110517;28;20043;-54
2022/09/23 09:41:15;;;;;;;13.90;6.22;;;;;;;17.54;52.25;101232.25;5108244;28;20052;-55
2022/09/23 09:43:47;;;;;;;17.20;6.35;;;;;;;17.95;50.18;101227.16;5108090;28;20397;-55
2022/09/23 09:46:35;;;;;;;13.63;6.50;;;;;;;18.01;48.34;101222.91;5108986;28;20051;-55
2022/09/23 09:49:10;;;;;;;14.45;6.13;;;;;;;18.65;47.92;101223.84;5108838;28;20409;-55
2022/09/23 09:51:41;;;;;;;14.13;5.90;;;;;;;19.02;45.73;101225.34;5071120;28;20283;-55
2022/09/23 09:54:22;;;;;;;17.00;6.30;;;;;;;19.04;46.38;101219.78;5091614;28;20052;-55
2022/09/23 09:56:50;;;;;;;15.10;6.90;;;;;;;19.07;47.04;101211.31;5104188;28;20498;-55
2022/09/23 09:59:24;;;;;;;22.05;6.43;;;;;;;18.74;46.25;101214.59;5095346;28;20477;-55
2022/09/23 10:02:13;;;;;;;11.57;6.60;;;;;;;18.63;46.31;101212.44;5089300;28;20040;-55
2022/09/23 10:04:40;;;;;;;17.48;6.10;;;;;;;19.09;46.44;101220.84;5098640;28;20051;-56
2022/09/23 10:07:14;;;;;;;15.05;6.90;;;;;;;19.24;45.16;101214.50;5102203;28;20051;-55
2022/09/23 10:09:49;;;;;;;15.02;6.22;;;;;;;19.31;45.71;101218.03;5109710;28;20047;-55
2022/09/23 10:12:20;;;;;;;18.60;6.78;;;;;;;19.79;45.01;101209.13;5104516;28;20412;-55
2022/09/23 10:14:50;;;;;;;13.23;6.10;;;;;;;19.72;45.72;101217.16;5105735;28;20061;-55
2022/09/23 10:17:21;;;;;;;17.83;6.30;;;;;;;19.40;45.37;101210.63;5104170;28;20036;-55
2022/09/23 10:19:59;;;;;;;19.20;6.40;;;;;;;19.08;45.83;101205.75;5103703;28;20122;-55
2022/09/23 10:22:31;;;;;;;13.93;6.07;;;;;;;18.76;46.51;101208.00;5103000;28;20101;-55
2022/09/23 10:25:02;;;;;;;16.98;5.80;;;;;;;18.72;47.67;101212.13;5103671;28;20128;-55
2022/09/23 10:27:33;;;;;;;15.95;6.13;;;;;;;18.71;49.12;101204.25;5091948;28;20059;-55
2022/09/23 10:30:03;;;;;;;12.75;5.93;;;;;;;19.08;46.48;101213.81;5101083;28;20051;-53
2022/09/23 10:32:33;;;;;;;15.18;6.25;;;;;;;18.92;45.00;101212.28;5108101;28;20043;-53
2022/09/23 10:37:48;;;;;;;14.43;6.63;;;;;;;19.30;44.54;101206.47;5089036;27;20401;-53
2022/09/23 10:46:48;;;;;;;15.65;6.35;;;;;;;20.51;44.80;101194.88;5066426;28;20889;-53
2022/09/23 10:49:31;;;;;;;19.58;6.30;;;;;;;20.53;42.81;101195.50;5057353;28;20068;-52
2022/09/23 10:52:25;;;;;;;15.02;6.15;;;;;;;20.84;42.20;101188.63;5034059;28;20151;-55
2022/09/23 10:55:21;;;;;;;14.80;6.35;;;;;;;20.48;41.96;101192.63;5068758;28;20487;-54
2022/09/23 10:58:16;;;;;;;45.42;19.13;;;;;;;21.11;42.36;101183.16;5059580;28;20041;-57
2022/09/23 11:01:07;;;;;;;16.02;6.00;;;;;;;21.38;41.31;101191.16;5055037;28;20505;-54
2022/09/23 11:06:32;;;;;;;14.45;5.22;;;;;;;20.92;38.94;101186.75;5149974;27;19930;-54
2022/09/23 11:12:20;;;;;;;15.55;5.40;;;;;;;20.52;41.84;101174.97;5109641;27;20365;-54
2022/09/23 11:15:11;;;;;;;12.43;4.57;;;;;;;20.94;40.87;101180.13;5109983;28;20040;-54
2022/09/23 11:20:57;;;;;;;15.68;5.25;;;;;;;20.96;39.40;101177.22;5110289;27;20124;-54
2022/09/23 11:23:49;;;;;;;13.18;4.82;;;;;;;21.14;39.13;101171.94;5110541;28;20047;-56
2022/09/23 11:26:30;;;;;;;13.15;4.68;;;;;;;21.42;38.94;101168.91;5110273;28;20040;-55
2022/09/23 11:29:15;;;;;;;10.93;4.30;;;;;;;21.91;38.94;101163.84;5110659;28;20071;-53
2022/09/23 11:32:06;;;;;;;13.15;4.88;;;;;;;21.89;37.25;101167.84;5110246;28;20392;-55
2022/09/23 11:35:14;;;;;;;12.75;4.40;;;;;;;21.27;39.37;101157.56;5110324;28;20043;-54
2022/09/23 11:37:46;;;;;;;13.98;4.47;;;;;;;21.17;39.62;101162.59;5109725;28;20401;-55
2022/09/23 11:40:29;;;;;;;12.57;5.00;;;;;;;20.74;40.21;101155.06;5110041;28;20122;-55
2022/09/23 11:43:01;;;;;;;14.00;4.82;;;;;;;20.55;40.27;101157.56;5110237;28;20048;-54
2022/09/23 11:45:33;;;;;;;16.77;5.10;;;;;;;20.35;42.11;101149.50;5108972;28;20501;-54
2022/09/23 11:48:09;;;;;;;13.85;4.78;;;;;;;20.26;41.28;101150.75;5110089;28;20145;-55
2022/09/23 11:50:43;;;;;;;11.10;4.32;;;;;;;20.46;43.05;101146.16;5108051;28;20513;-55
2022/09/23 11:53:18;;;;;;;15.80;4.82;;;;;;;20.31;41.48;101146.41;5014669;28;20162;-54
2022/09/23 11:55:55;;;;;;;15.63;5.18;;;;;;;20.09;41.39;101139.59;5110177;28;20127;-54
2022/09/23 11:58:29;;;;;;;11.63;4.88;;;;;;;19.68;42.18;101146.78;5110215;28;20044;-54
2022/09/23 12:01:06;;;;;;;11.38;4.03;;;;;;;19.54;42.39;101143.22;5110426;28;20071;-54
2022/09/23 12:03:50;;;;;;;12.75;4.78;;;;;;;19.40;41.95;101138.00;5109583;28;20040;-55
2022/09/23 12:06:22;;;;;;;14.93;4.30;;;;;;;19.35;43.99;101138.59;5109211;28;20047;-54
2022/09/23 12:08:54;;;;;;;14.88;5.07;;;;;;;19.36;43.72;101142.97;5108426;28;20044;-54
2022/09/23 12:11:28;;;;;;;15.15;4.85;;;;;;;19.24;42.56;101128.44;5110137;28;20439;-54